CYND

Ottawa / Gatineau Airport

Ottawa, , Canada
METAR CYND 101500Z VRB05KT 15SM FEW025 FEW230 M09/M15 A3027 RMK CF1CI1 CF TR CI TR SLP257
Observed Flight Rules
Dec-10 @ 15:00 UTC (53 minutes ago) Visual Flight Rules
Wind Visibility Clouds
Variable at 5 knots 15 miles
  • Few at 2,500' AGL
  • Few at 23,000' AGL
Temperatures Readings
Current -9°C / 16°F
Dewpoint -15°C / 5°F
Humidity 62%
Altimeter 30.27" Hg
Pressure 1025.7 hPa
Elevation 64
METAR CYND 101500Z VRB05KT 15SM FEW025 FEW230 M09/M15 A3027 RMK CF1CI1 CF TR CI TR SLP257
Observed Flight Rules
Dec-10 @ 15:00 UTC
(53 minutes ago)
VFR
Wind Visibility
Variable at 5 knots 15 miles
Clouds
  • Few at 2,500' AGL
  • Few at 23,000' AGL
Temperature Dewpoint
-9°C / 16°F -15°C / 5°F
Humidity Altimeter Pressure
62% 30.27" Hg 1025.7 hPa